Time;durP1;ratioP1;P1;durP2;ratioP2;P2;SDS_P1;SDS_P2;PMS_P1;PMS_P2;Temp;Humidity;BMP_temperature;BMP_pressure;BME280_temperature;BME280_humidity;BME280_pressure;Samples;Min_cycle;Max_cycle;Signal;HPM_P1;HPM_P2
2023/05/21 00:01:38;;;;;;;3.40;2.20;;;17.50;60.20;;;;;;6178471;23;20012;-56
2023/05/21 00:04:06;;;;;;;5.32;2.35;;;17.50;60.10;;;;;;6282949;22;20013;-58
2023/05/21 00:06:34;;;;;;;6.03;2.25;;;17.40;60.10;;;;;;6179850;22;20336;-58
2023/05/21 00:09:04;;;;;;;5.93;2.60;;;17.40;60.00;;;;;;6179228;22;20138;-58
2023/05/21 00:11:30;;;;;;;4.50;2.95;;;17.30;60.40;;;;;;6178513;22;20080;-57
2023/05/21 00:13:56;;;;;;;5.15;2.30;;;17.30;60.30;;;;;;6179018;22;20015;-57
2023/05/21 00:16:22;;;;;;;2.88;2.55;;;17.30;60.20;;;;;;6179329;22;20032;-57
2023/05/21 00:18:53;;;;;;;4.28;2.40;;;17.20;60.10;;;;;;6281343;22;20002;-58
2023/05/21 00:21:21;;;;;;;3.42;2.38;;;17.10;60.10;;;;;;6178931;22;20008;-58
2023/05/21 00:23:48;;;;;;;5.45;2.50;;;17.00;60.20;;;;;;6178805;22;20009;-57
2023/05/21 00:26:14;;;;;;;3.60;2.63;;;17.00;60.60;;;;;;6178996;22;20010;-57
2023/05/21 00:28:40;;;;;;;4.50;3.20;;;17.00;60.90;;;;;;6179174;22;20012;-57
2023/05/21 00:31:06;;;;;;;3.97;2.22;;;16.90;60.80;;;;;;6178823;23;20088;-55
2023/05/21 00:33:31;;;;;;;5.50;2.40;;;16.90;60.80;;;;;;6178857;22;20414;-56
2023/05/21 00:35:57;;;;;;;3.28;2.53;;;16.90;60.80;;;;;;6178373;22;20023;-57
2023/05/21 00:38:23;;;;;;;3.20;2.42;;;16.80;60.70;;;;;;6180063;22;20172;-56
2023/05/21 00:40:49;;;;;;;2.92;2.35;;;16.80;60.70;;;;;;6177768;22;20030;-56
2023/05/21 00:43:15;;;;;;;3.88;2.28;;;16.70;60.80;;;;;;6179137;22;20001;-56
2023/05/21 00:45:46;;;;;;;3.33;2.40;;;16.70;61.10;;;;;;6178583;22;20009;-57
2023/05/21 00:48:12;;;;;;;4.28;2.17;;;16.70;60.90;;;;;;6179413;22;20367;-57
2023/05/21 00:50:40;;;;;;;4.70;2.20;;;16.60;60.70;;;;;;6179420;22;20054;-57
2023/05/21 00:53:09;;;;;;;3.95;2.20;;;16.60;60.80;;;;;;6180117;22;20019;-58
2023/05/21 00:55:38;;;;;;;3.97;2.20;;;16.60;61.20;;;;;;6179722;22;20005;-56
2023/05/21 00:58:05;;;;;;;2.75;2.17;;;16.60;61.10;;;;;;6178811;22;20005;-57
2023/05/21 01:00:36;;;;;;;2.72;2.30;;;16.50;61.00;;;;;;6179034;22;19997;-57
2023/05/21 01:03:03;;;;;;;4.72;2.53;;;16.50;61.00;;;;;;6178699;22;20009;-57
2023/05/21 01:05:29;;;;;;;3.78;2.30;;;16.50;61.10;;;;;;6178690;22;20001;-57
2023/05/21 01:07:56;;;;;;;5.05;2.22;;;16.50;61.30;;;;;;6178461;22;20084;-57
2023/05/21 01:10:23;;;;;;;3.83;2.38;;;16.50;61.50;;;;;;6178382;22;20019;-57
2023/05/21 01:12:50;;;;;;;2.95;2.20;;;16.50;61.60;;;;;;6179133;22;20371;-57
2023/05/21 01:15:16;;;;;;;2.95;2.17;;;16.50;61.50;;;;;;6178989;22;20001;-56
2023/05/21 01:17:44;;;;;;;2.70;2.20;;;16.50;61.70;;;;;;6178888;22;20009;-57
2023/05/21 01:20:11;;;;;;;2.10;1.90;;;16.50;61.50;;;;;;6178938;22;20001;-57
2023/05/21 01:22:46;;;;;;;2.75;2.20;;;16.50;61.40;;;;;;6178229;23;20052;-57
2023/05/21 01:25:12;;;;;;;3.78;2.20;;;16.40;60.80;;;;;;6177167;22;20016;-55
2023/05/21 01:27:37;;;;;;;3.47;2.42;;;16.40;61.20;;;;;;6177404;22;20450;-56
2023/05/21 01:30:03;;;;;;;2.72;2.45;;;16.40;61.30;;;;;;6177832;22;20041;-59
2023/05/21 01:32:39;;;;;;;4.32;2.17;;;16.30;61.40;;;;;;6178076;22;20013;-57
2023/05/21 01:35:16;;;;;;;4.95;1.90;;;16.30;61.50;;;;;;6177976;22;20503;-56
2023/05/21 01:38:02;;;;;;;3.28;2.20;;;16.30;61.80;;;;;;6178598;23;20005;-58
2023/05/21 01:40:37;;;;;;;2.83;2.20;;;16.30;61.40;;;;;;6178747;22;19997;-57
2023/05/21 01:43:05;;;;;;;2.35;2.03;;;16.30;61.30;;;;;;6179427;22;20016;-58
2023/05/21 01:45:32;;;;;;;4.50;2.55;;;16.30;61.10;;;;;;6178601;22;20009;-58
2023/05/21 01:47:58;;;;;;;3.03;2.20;;;16.30;61.30;;;;;;6178132;22;20005;-57
2023/05/21 01:50:24;;;;;;;3.58;2.13;;;16.30;61.40;;;;;;6178744;22;20013;-57
2023/05/21 01:52:59;;;;;;;2.63;2.35;;;16.30;61.20;;;;;;6178796;22;20005;-56
2023/05/21 01:55:27;;;;;;;3.17;2.20;;;16.30;60.90;;;;;;6178427;22;20024;-56
2023/05/21 01:57:54;;;;;;;3.22;2.30;;;16.30;61.00;;;;;;6178648;22;20330;-56
2023/05/21 02:00:21;;;;;;;3.58;2.33;;;16.30;61.20;;;;;;6178739;22;20008;-56
2023/05/21 02:02:47;;;;;;;2.72;2.20;;;16.20;61.00;;;;;;6177967;22;19994;-55
2023/05/21 02:05:13;;;;;;;2.60;2.08;;;16.10;60.90;;;;;;6178265;22;20059;-56
2023/05/21 02:07:39;;;;;;;2.25;2.05;;;16.10;61.00;;;;;;6178267;22;20034;-56
2023/05/21 02:10:05;;;;;;;3.95;2.22;;;16.10;61.20;;;;;;6178414;22;20005;-55
2023/05/21 02:12:31;;;;;;;4.80;2.30;;;16.10;61.20;;;;;;6178848;22;20464;-56
2023/05/21 02:14:56;;;;;;;3.38;2.25;;;16.00;61.50;;;;;;6178402;22;20005;-56
2023/05/21 02:17:25;;;;;;;2.45;2.17;;;16.00;61.60;;;;;;6176257;22;20012;-56
2023/05/21 02:19:51;;;;;;;7.80;2.85;;;16.00;61.70;;;;;;6175360;22;20221;-55
2023/05/21 02:22:16;;;;;;;3.10;2.55;;;16.00;61.30;;;;;;6176155;22;20017;-56
2023/05/21 02:24:42;;;;;;;3.05;2.03;;;16.00;61.40;;;;;;6175612;22;20001;-57
2023/05/21 02:27:09;;;;;;;2.47;1.92;;;16.00;61.80;;;;;;6176623;22;20012;-56
2023/05/21 02:29:35;;;;;;;4.00;2.35;;;16.00;62.00;;;;;;6176473;22;20001;-56
2023/05/21 02:32:01;;;;;;;2.20;2.00;;;15.90;62.00;;;;;;6176508;22;20073;-56
2023/05/21 02:34:29;;;;;;;4.15;2.40;;;15.90;62.10;;;;;;6177931;22;20005;-57
2023/05/21 02:36:55;;;;;;;2.72;2.53;;;15.90;62.20;;;;;;6178478;22;19997;-57
2023/05/21 02:39:21;;;;;;;4.28;2.50;;;15.90;62.20;;;;;;6178324;22;20012;-56
2023/05/21 02:41:46;;;;;;;2.70;2.50;;;15.90;61.70;;;;;;6178100;22;20050;-56
2023/05/21 02:44:13;;;;;;;6.10;2.67;;;15.90;61.80;;;;;;6178255;22;20345;-56
2023/05/21 02:46:38;;;;;;;2.72;2.42;;;15.90;61.40;;;;;;6178265;22;20092;-58
2023/05/21 02:49:04;;;;;;;3.13;2.40;;;15.90;61.80;;;;;;6178422;23;20032;-57
2023/05/21 02:51:30;;;;;;;3.58;2.53;;;15.90;61.70;;;;;;6178704;22;20337;-58
2023/05/21 02:53:56;;;;;;;4.97;2.42;;;15.90;61.90;;;;;;6178374;22;20009;-58
2023/05/21 02:56:22;;;;;;;2.70;2.10;;;16.00;62.10;;;;;;6178618;22;20005;-58
2023/05/21 02:58:47;;;;;;;2.88;2.47;;;16.00;62.20;;;;;;6178568;22;20001;-58
2023/05/21 03:01:13;;;;;;;3.97;2.50;;;16.00;62.00;;;;;;6179621;22;20005;-57
2023/05/21 03:03:39;;;;;;;2.53;2.25;;;16.00;62.00;;;;;;6179174;22;20016;-57
2023/05/21 03:06:05;;;;;;;7.32;2.55;;;16.00;62.20;;;;;;6284058;22;20005;-58
2023/05/21 03:08:31;;;;;;;5.57;2.85;;;16.10;61.70;;;;;;6285871;22;20024;-57
2023/05/21 03:10:56;;;;;;;2.65;2.30;;;16.10;61.30;;;;;;6179440;22;20001;-58
2023/05/21 03:13:22;;;;;;;4.32;2.42;;;16.20;61.60;;;;;;6180664;22;20008;-58
2023/05/21 03:15:48;;;;;;;2.38;2.17;;;16.20;61.60;;;;;;6180736;22;20354;-57
2023/05/21 03:18:13;;;;;;;2.67;2.10;;;16.30;61.60;;;;;;6179495;22;20661;-57
2023/05/21 03:20:48;;;;;;;3.38;2.40;;;16.40;61.20;;;;;;6181177;22;20001;-57
2023/05/21 03:23:14;;;;;;;2.50;2.30;;;16.50;61.40;;;;;;6181328;23;20017;-57
2023/05/21 03:25:40;;;;;;;2.55;2.35;;;16.60;61.30;;;;;;6284870;22;20009;-57
2023/05/21 03:28:06;;;;;;;4.05;2.45;;;16.70;61.00;;;;;;6180846;22;20001;-58
2023/05/21 03:30:32;;;;;;;2.40;2.20;;;16.80;60.90;;;;;;6180682;22;20009;-58
2023/05/21 03:32:58;;;;;;;2.30;2.08;;;16.90;61.00;;;;;;6180710;22;20000;-58
2023/05/21 03:35:24;;;;;;;2.50;2.30;;;17.10;60.50;;;;;;6181085;22;20009;-58
2023/05/21 03:37:50;;;;;;;2.50;2.22;;;17.40;60.40;;;;;;6181899;22;20028;-58
2023/05/21 03:40:16;;;;;;;2.55;2.10;;;17.70;59.80;;;;;;6182400;22;20001;-56
2023/05/21 03:42:41;;;;;;;4.47;2.28;;;18.00;59.50;;;;;;6181370;22;20008;-55
2023/05/21 03:45:07;;;;;;;5.80;2.35;;;18.40;59.20;;;;;;6180734;22;20005;-56
2023/05/21 03:47:34;;;;;;;4.30;2.20;;;18.90;58.70;;;;;;6180092;22;20044;-56
2023/05/21 03:50:01;;;;;;;5.00;2.33;;;19.50;57.80;;;;;;6179624;22;20009;-56
2023/05/21 03:52:26;;;;;;;2.40;2.10;;;20.10;56.80;;;;;;6180695;22;20084;-56
2023/05/21 03:54:52;;;;;;;2.58;1.90;;;20.80;55.40;;;;;;6180121;22;20032;-56
2023/05/21 03:57:17;;;;;;;2.13;1.73;;;21.40;54.00;;;;;;6178654;22;20012;-56
2023/05/21 03:59:44;;;;;;;1.83;1.73;;;21.90;53.40;;;;;;6177424;22;20325;-55
2023/05/21 04:02:09;;;;;;;2.42;2.00;;;22.50;52.60;;;;;;6177975;22;20005;-56
2023/05/21 04:04:35;;;;;;;3.00;2.00;;;23.10;51.50;;;;;;6177704;22;20009;-55
2023/05/21 04:07:03;;;;;;;2.55;2.10;;;23.50;50.50;;;;;;6177303;22;20005;-55
2023/05/21 04:09:29;;;;;;;6.07;2.92;;;23.90;49.70;;;;;;6178183;22;20001;-55
2023/05/21 04:11:55;;;;;;;3.13;1.92;;;24.40;48.80;;;;;;6178060;22;20001;-58
2023/05/21 04:14:22;;;;;;;2.63;2.00;;;24.90;48.60;;;;;;6178320;22;20009;-56
2023/05/21 04:16:47;;;;;;;3.83;2.10;;;25.40;47.90;;;;;;6283018;22;20001;-57
2023/05/21 04:19:13;;;;;;;2.47;1.63;;;25.80;47.30;;;;;;6179774;22;20333;-56
2023/05/21 04:21:39;;;;;;;2.35;1.92;;;26.10;47.00;;;;;;6178939;23;20162;-57
2023/05/21 04:24:05;;;;;;;1.92;1.83;;;26.50;46.50;;;;;;6180081;22;20388;-57
2023/05/21 04:26:32;;;;;;;3.85;1.85;;;26.80;45.80;;;;;;6179274;22;20024;-56
2023/05/21 04:28:58;;;;;;;5.75;2.00;;;27.10;45.20;;;;;;6178973;22;20029;-57
2023/05/21 04:31:24;;;;;;;4.38;2.08;;;27.40;44.60;;;;;;6179342;22;20015;-57
2023/05/21 04:33:50;;;;;;;5.25;2.40;;;27.70;44.40;;;;;;6178628;22;20070;-56
2023/05/21 04:36:16;;;;;;;1.90;1.80;;;28.00;43.90;;;;;;6178216;22;20001;-57
2023/05/21 04:38:41;;;;;;;3.05;2.40;;;28.20;43.60;;;;;;6178303;22;20011;-57
2023/05/21 04:41:09;;;;;;;2.22;2.00;;;28.40;43.10;;;;;;6178332;22;20444;-57
2023/05/21 04:43:35;;;;;;;2.78;1.95;;;28.60;42.70;;;;;;6177881;22;20009;-55
2023/05/21 04:46:01;;;;;;;2.95;1.90;;;28.90;42.30;;;;;;6179001;22;20012;-57
2023/05/21 04:48:27;;;;;;;2.15;1.95;;;29.20;41.70;;;;;;6178571;22;20005;-57
2023/05/21 04:50:54;;;;;;;2.55;2.00;;;29.50;41.40;;;;;;6179069;22;20009;-56
2023/05/21 04:53:21;;;;;;;4.47;2.28;;;29.80;41.20;;;;;;6179363;22;20092;-57
2023/05/21 04:55:48;;;;;;;3.35;2.10;;;30.00;40.90;;;;;;6178236;22;20054;-57
2023/05/21 04:58:16;;;;;;;6.35;2.45;;;30.30;40.40;;;;;;6177872;22;20367;-57
2023/05/21 05:00:44;;;;;;;3.67;2.05;;;30.50;40.10;;;;;;6178259;22;20062;-57
2023/05/21 05:03:11;;;;;;;2.55;2.10;;;30.70;39.80;;;;;;6178234;22;19997;-56
2023/05/21 05:05:36;;;;;;;3.63;2.65;;;30.90;39.60;;;;;;6178715;22;20009;-57
2023/05/21 05:08:02;;;;;;;4.18;2.17;;;31.00;39.50;;;;;;6177791;22;20005;-57
2023/05/21 05:10:28;;;;;;;4.53;2.22;;;31.00;39.30;;;;;;6178723;22;20425;-57
2023/05/21 05:12:54;;;;;;;4.85;2.28;;;30.90;39.20;;;;;;6178119;22;20011;-56
2023/05/21 05:15:19;;;;;;;3.15;1.80;;;31.00;38.80;;;;;;6179555;22;20009;-57
2023/05/21 05:17:49;;;;;;;3.00;2.30;;;31.10;38.70;;;;;;6178738;22;20008;-55
2023/05/21 05:20:15;;;;;;;4.90;2.33;;;31.10;38.30;;;;;;6179073;22;20005;-56
2023/05/21 05:22:40;;;;;;;3.15;1.90;;;31.00;37.90;;;;;;6178145;23;20016;-56
2023/05/21 05:25:06;;;;;;;4.38;2.40;;;30.70;38.00;;;;;;6179697;22;20009;-55
2023/05/21 05:27:32;;;;;;;2.38;2.05;;;30.10;38.50;;;;;;6179114;22;20141;-57
2023/05/21 05:29:58;;;;;;;3.15;2.25;;;29.40;38.70;;;;;;6281953;22;20013;-58
2023/05/21 05:32:24;;;;;;;4.63;2.28;;;28.60;39.00;;;;;;6178252;22;20092;-58
2023/05/21 05:34:49;;;;;;;4.55;2.22;;;27.90;39.70;;;;;;6179832;22;20001;-57
2023/05/21 05:37:15;;;;;;;3.05;2.20;;;27.10;40.30;;;;;;6180456;22;20688;-57
2023/05/21 05:39:40;;;;;;;2.50;2.30;;;26.40;41.00;;;;;;6178705;22;20440;-58
2023/05/21 05:42:06;;;;;;;4.10;1.90;;;25.70;41.50;;;;;;6176796;22;20001;-58
2023/05/21 05:44:31;;;;;;;3.05;1.92;;;25.20;41.90;;;;;;6176735;22;20005;-56
2023/05/21 05:46:57;;;;;;;3.70;2.00;;;24.70;42.60;;;;;;6178286;22;20612;-56
2023/05/21 05:49:23;;;;;;;3.08;2.20;;;24.30;43.40;;;;;;6177750;22;20012;-56
2023/05/21 05:51:48;;;;;;;3.88;2.15;;;23.80;44.20;;;;;;6177034;22;20706;-55
2023/05/21 05:54:14;;;;;;;3.33;2.00;;;23.50;44.70;;;;;;6177418;22;20013;-56
2023/05/21 05:56:39;;;;;;;2.20;1.95;;;23.20;45.40;;;;;;6177300;22;20006;-56
2023/05/21 05:59:05;;;;;;;4.47;2.22;;;22.90;45.80;;;;;;6176555;22;20014;-56
2023/05/21 06:01:31;;;;;;;4.47;2.10;;;22.70;45.90;;;;;;6176582;22;20009;-56
2023/05/21 06:03:56;;;;;;;1.70;1.60;;;22.50;46.30;;;;;;6173978;22;20009;-57
2023/05/21 06:06:22;;;;;;;4.72;2.17;;;22.30;46.70;;;;;;6175069;22;20009;-56
2023/05/21 06:08:48;;;;;;;3.63;2.15;;;22.10;47.00;;;;;;6174244;22;20013;-57
2023/05/21 06:11:15;;;;;;;1.80;1.70;;;22.00;47.40;;;;;;6173432;22;20009;-56
2023/05/21 06:13:41;;;;;;;4.05;2.28;;;21.90;48.10;;;;;;6174370;22;20058;-56
2023/05/21 06:16:10;;;;;;;4.28;2.40;;;21.80;48.30;;;;;;6175297;23;20421;-57
2023/05/21 06:18:36;;;;;;;3.15;2.10;;;21.70;48.40;;;;;;6175079;22;20389;-57
2023/05/21 06:21:02;;;;;;;5.38;2.22;;;21.60;48.40;;;;;;6175785;23;20044;-57
2023/05/21 06:23:27;;;;;;;2.95;1.92;;;21.50;48.60;;;;;;6175699;22;20013;-57
2023/05/21 06:25:53;;;;;;;3.20;1.98;;;21.40;48.90;;;;;;6173889;22;20005;-57
2023/05/21 06:28:18;;;;;;;2.00;1.80;;;21.40;49.10;;;;;;6175542;22;20370;-57
2023/05/21 06:30:44;;;;;;;3.25;2.08;;;21.30;49.00;;;;;;6172816;22;20032;-57
2023/05/21 06:33:10;;;;;;;2.20;2.00;;;21.20;49.10;;;;;;6175060;22;20035;-56
2023/05/21 06:35:35;;;;;;;3.10;2.33;;;21.20;49.10;;;;;;6174825;22;20001;-55
2023/05/21 06:38:02;;;;;;;4.10;1.80;;;21.20;49.30;;;;;;6177880;22;20367;-57
2023/05/21 06:40:27;;;;;;;2.67;1.90;;;21.20;49.50;;;;;;6179688;22;20002;-58
2023/05/21 06:42:54;;;;;;;2.72;2.10;;;21.20;49.60;;;;;;6178543;22;20001;-58
2023/05/21 06:45:20;;;;;;;3.92;2.10;;;21.20;49.70;;;;;;6177260;22;20005;-58
2023/05/21 06:47:46;;;;;;;3.72;2.20;;;21.20;49.70;;;;;;6179984;22;20058;-58
2023/05/21 06:50:11;;;;;;;2.47;2.00;;;21.10;49.90;;;;;;6178873;22;20009;-58
2023/05/21 06:52:37;;;;;;;3.50;2.00;;;21.10;50.40;;;;;;6176889;22;20009;-57
2023/05/21 06:55:03;;;;;;;6.47;2.70;;;21.10;50.70;;;;;;6177362;22;20016;-57
2023/05/21 06:57:28;;;;;;;3.88;2.17;;;21.10;50.90;;;;;;6179560;22;20005;-59
2023/05/21 06:59:54;;;;;;;2.33;2.13;;;21.20;51.00;;;;;;6177865;22;20009;-58
2023/05/21 07:02:20;;;;;;;2.17;1.95;;;21.20;51.10;;;;;;6176285;22;20001;-59
2023/05/21 07:04:45;;;;;;;2.50;1.85;;;21.20;51.00;;;;;;6176646;22;20009;-57
2023/05/21 07:07:11;;;;;;;4.18;2.40;;;21.20;51.10;;;;;;6177426;22;20001;-58
2023/05/21 07:09:37;;;;;;;2.30;2.08;;;21.20;51.00;;;;;;6177655;22;20055;-57
2023/05/21 07:12:02;;;;;;;2.97;2.20;;;21.10;51.00;;;;;;6179455;22;20005;-57
2023/05/21 07:14:28;;;;;;;2.90;2.20;;;21.20;50.80;;;;;;6178362;22;20001;-57
2023/05/21 07:16:54;;;;;;;2.55;2.35;;;21.10;50.70;;;;;;6179253;22;20058;-57
2023/05/21 07:19:20;;;;;;;3.47;2.22;;;21.10;51.10;;;;;;6179095;22;20065;-57
2023/05/21 07:21:46;;;;;;;2.55;2.00;;;21.10;51.60;;;;;;6178507;22;20096;-57
2023/05/21 07:24:12;;;;;;;1.92;1.83;;;21.00;51.50;;;;;;6179395;22;20033;-57
2023/05/21 07:26:37;;;;;;;6.18;2.22;;;21.00;51.50;;;;;;6178680;22;20009;-58
2023/05/21 07:29:03;;;;;;;2.35;2.03;;;21.10;51.20;;;;;;6281260;22;20013;-56
2023/05/21 07:31:28;;;;;;;4.32;2.63;;;21.10;51.10;;;;;;6178675;22;20062;-58
2023/05/21 07:33:54;;;;;;;2.70;2.10;;;21.10;51.10;;;;;;6176863;22;20397;-58
2023/05/21 07:36:20;;;;;;;2.88;2.30;;;21.10;51.30;;;;;;6179120;22;20712;-58
2023/05/21 07:38:45;;;;;;;3.83;2.08;;;21.10;51.50;;;;;;6177163;22;20001;-56
2023/05/21 07:41:11;;;;;;;3.45;2.28;;;21.10;51.50;;;;;;6174190;22;20089;-58
2023/05/21 07:43:37;;;;;;;3.10;2.10;;;21.10;51.40;;;;;;6173981;22;20005;-57
2023/05/21 07:46:03;;;;;;;5.00;2.58;;;21.10;51.00;;;;;;6174823;22;20226;-58
2023/05/21 07:48:28;;;;;;;4.88;2.40;;;21.10;50.70;;;;;;6176574;22;20056;-58
2023/05/21 07:50:55;;;;;;;3.78;2.50;;;21.10;50.70;;;;;;6177018;22;20005;-58
2023/05/21 07:53:21;;;;;;;3.50;2.45;;;21.10;50.80;;;;;;6177272;22;20005;-58
2023/05/21 07:55:46;;;;;;;3.55;2.63;;;21.10;51.10;;;;;;6178396;22;20015;-57
2023/05/21 07:58:22;;;;;;;4.28;2.53;;;21.10;51.20;;;;;;6178707;22;20001;-56
2023/05/21 08:00:47;;;;;;;3.20;2.83;;;21.00;51.10;;;;;;6176993;22;20081;-56
2023/05/21 08:03:17;;;;;;;3.22;2.30;;;21.00;51.80;;;;;;6177132;22;20016;-57
2023/05/21 08:05:47;;;;;;;3.42;2.55;;;21.00;51.60;;;;;;6177416;22;20066;-56
2023/05/21 08:08:14;;;;;;;4.57;2.65;;;21.00;50.40;;;;;;6176983;22;20105;-57
2023/05/21 08:10:39;;;;;;;4.60;2.20;;;21.00;50.30;;;;;;6177143;23;20005;-56
2023/05/21 08:13:05;;;;;;;3.72;2.40;;;21.00;50.10;;;;;;6177749;22;20063;-56
2023/05/21 08:15:30;;;;;;;2.85;2.05;;;21.00;50.10;;;;;;6174916;22;20020;-56
2023/05/21 08:17:56;;;;;;;3.72;2.10;;;21.00;50.10;;;;;;6175416;22;20001;-57
2023/05/21 08:20:22;;;;;;;3.30;2.25;;;21.00;50.00;;;;;;6172267;22;20008;-58
2023/05/21 08:22:48;;;;;;;3.22;2.47;;;21.00;50.40;;;;;;6176347;22;20082;-56
2023/05/21 08:25:14;;;;;;;2.92;2.50;;;21.10;50.10;;;;;;6177022;22;20016;-56
2023/05/21 08:27:40;;;;;;;3.20;2.60;;;21.00;50.10;;;;;;6175715;22;20005;-56
2023/05/21 08:30:07;;;;;;;3.00;2.40;;;21.00;50.50;;;;;;6176427;22;20005;-57
2023/05/21 08:32:33;;;;;;;4.60;2.58;;;21.00;50.50;;;;;;6176817;22;20348;-57
2023/05/21 08:34:59;;;;;;;4.53;2.78;;;21.00;50.10;;;;;;6176949;22;20008;-57
2023/05/21 08:37:25;;;;;;;3.70;2.30;;;21.00;49.80;;;;;;6177626;22;20329;-57
2023/05/21 08:39:50;;;;;;;5.28;2.75;;;20.90;50.30;;;;;;6176866;22;20005;-57
2023/05/21 08:42:31;;;;;;;3.08;2.40;;;20.90;50.00;;;;;;6177644;22;20009;-56
2023/05/21 08:44:59;;;;;;;3.70;2.63;;;20.90;50.40;;;;;;6176684;22;20008;-58
2023/05/21 08:47:28;;;;;;;3.83;2.58;;;20.90;50.70;;;;;;6177788;22;20697;-57
2023/05/21 08:49:54;;;;;;;3.50;2.20;;;20.90;50.40;;;;;;6176022;22;20105;-58
2023/05/21 08:52:20;;;;;;;3.70;2.03;;;20.80;50.10;;;;;;6175710;22;20062;-58
2023/05/21 08:54:49;;;;;;;3.58;2.60;;;20.80;50.20;;;;;;6176659;23;20013;-57
2023/05/21 08:57:17;;;;;;;2.65;2.15;;;20.80;50.50;;;;;;6177893;22;20459;-58
2023/05/21 08:59:44;;;;;;;3.53;2.70;;;20.80;50.60;;;;;;6173887;22;20062;-56
2023/05/21 09:02:14;;;;;;;3.08;2.47;;;20.80;50.80;;;;;;6178427;22;20080;-57
2023/05/21 09:04:40;;;;;;;5.30;2.58;;;20.80;51.10;;;;;;6177319;22;20002;-58
2023/05/21 09:07:08;;;;;;;4.88;2.33;;;20.70;50.90;;;;;;6175982;22;20047;-56
2023/05/21 09:09:59;;;;;;;5.80;2.30;;;20.70;51.30;;;;;;6177403;22;20005;-58
2023/05/21 09:12:25;;;;;;;5.93;2.67;;;20.70;51.50;;;;;;6177444;22;20005;-56
2023/05/21 09:14:51;;;;;;;2.78;2.58;;;20.70;51.60;;;;;;6176412;22;20030;-58
2023/05/21 09:17:18;;;;;;;4.60;2.42;;;20.70;51.60;;;;;;6177226;22;20005;-58
2023/05/21 09:20:23;;;;;;;4.22;2.90;;;20.70;51.30;;;;;;6174861;22;20439;-55
2023/05/21 09:22:50;;;;;;;5.45;2.70;;;20.70;51.50;;;;;;6203668;23;20793;-58
2023/05/21 09:25:20;;;;;;;5.05;2.65;;;20.60;51.30;;;;;;6181631;22;20012;-58
2023/05/21 09:27:46;;;;;;;3.07;2.43;;;20.60;50.90;;;;;;6175840;22;20056;-57
2023/05/21 09:30:14;;;;;;;5.38;2.67;;;20.60;50.90;;;;;;6178861;22;20016;-58
2023/05/21 09:32:40;;;;;;;4.55;2.67;;;20.60;50.60;;;;;;6177996;22;20057;-58
2023/05/21 09:35:10;;;;;;;4.03;2.63;;;20.60;50.90;;;;;;6176796;22;20013;-57
2023/05/21 09:37:57;;;;;;;3.90;2.77;;;20.60;50.70;;;;;;6176429;22;20001;-53
2023/05/21 09:40:23;;;;;;;4.80;2.40;;;20.60;50.70;;;;;;6176316;22;20006;-56
2023/05/21 09:42:53;;;;;;;3.97;2.60;;;20.60;50.40;;;;;;6174909;22;20047;-58
2023/05/21 09:45:20;;;;;;;4.10;2.55;;;20.60;49.80;;;;;;6175638;22;20005;-57
2023/05/21 09:47:47;;;;;;;3.53;2.75;;;20.60;49.90;;;;;;6175314;22;20352;-59
2023/05/21 09:50:20;;;;;;;3.58;2.80;;;20.60;50.50;;;;;;6172721;22;20440;-57
2023/05/21 09:52:48;;;;;;;3.00;2.55;;;20.60;51.00;;;;;;6176235;22;20375;-59
2023/05/21 09:55:15;;;;;;;3.90;2.90;;;20.60;50.70;;;;;;6176301;22;20013;-55
2023/05/21 09:57:45;;;;;;;3.65;2.78;;;20.60;50.30;;;;;;6175934;22;20440;-56
2023/05/21 10:00:23;;;;;;;5.18;2.80;;;20.60;50.20;;;;;;6172248;22;20383;-58
2023/05/21 10:02:53;;;;;;;2.60;2.35;;;20.60;49.60;;;;;;6171251;22;20005;-57
2023/05/21 10:05:19;;;;;;;4.60;2.43;;;20.60;49.10;;;;;;6170899;22;20789;-58
2023/05/21 10:07:53;;;;;;;5.75;2.75;;;20.60;49.50;;;;;;6172509;23;20016;-57
2023/05/21 10:10:20;;;;;;;3.10;2.42;;;20.60;49.50;;;;;;6174784;22;20005;-56
2023/05/21 10:12:50;;;;;;;2.60;2.40;;;20.60;49.20;;;;;;6173615;22;20056;-58
2023/05/21 10:15:22;;;;;;;4.97;2.85;;;20.60;49.00;;;;;;6173712;22;20035;-56
2023/05/21 10:17:48;;;;;;;5.35;3.03;;;20.60;49.30;;;;;;6174159;22;20005;-56
2023/05/21 10:20:15;;;;;;;3.47;3.10;;;20.60;49.50;;;;;;6175037;22;20005;-59
2023/05/21 10:22:41;;;;;;;3.35;2.88;;;20.60;49.40;;;;;;6175730;22;20021;-57
2023/05/21 10:25:07;;;;;;;2.67;2.35;;;20.60;49.10;;;;;;6175699;22;20088;-57
2023/05/21 10:27:35;;;;;;;4.55;2.60;;;20.70;49.20;;;;;;6176098;22;20001;-59
2023/05/21 10:30:02;;;;;;;4.78;2.83;;;20.70;49.80;;;;;;6176938;22;20005;-59
2023/05/21 10:32:29;;;;;;;3.35;2.80;;;20.70;50.80;;;;;;6176479;22;20013;-57
2023/05/21 10:34:55;;;;;;;5.60;2.90;;;20.70;50.60;;;;;;6177539;22;20009;-58
2023/05/21 10:37:26;;;;;;;3.70;2.63;;;20.70;50.80;;;;;;6177875;22;20013;-56
2023/05/21 10:39:52;;;;;;;3.78;2.60;;;20.80;51.10;;;;;;6178649;22;20001;-57
2023/05/21 10:42:30;;;;;;;3.53;2.40;;;20.80;51.20;;;;;;6178523;22;20456;-56
2023/05/21 10:45:10;;;;;;;5.65;2.78;;;20.80;51.20;;;;;;6177118;22;20009;-57
2023/05/21 10:47:47;;;;;;;3.95;2.50;;;20.80;50.50;;;;;;6178298;22;20009;-57
2023/05/21 10:50:16;;;;;;;4.18;2.70;;;20.80;50.20;;;;;;6177186;22;20067;-56
2023/05/21 10:52:50;;;;;;;4.57;2.63;;;20.80;50.10;;;;;;6176413;22;20013;-55
2023/05/21 10:55:35;;;;;;;4.57;2.63;;;20.80;49.30;;;;;;6177398;22;20009;-56
2023/05/21 10:58:30;;;;;;;5.22;2.65;;;20.80;48.90;;;;;;6177300;23;20429;-57
2023/05/21 11:00:57;;;;;;;5.00;2.80;;;20.80;49.20;;;;;;6177221;22;20032;-59
2023/05/21 11:03:24;;;;;;;3.63;2.60;;;20.80;49.30;;;;;;6175898;22;20084;-57
2023/05/21 11:05:56;;;;;;;5.97;2.80;;;20.80;49.40;;;;;;6177228;22;20439;-57
2023/05/21 11:08:34;;;;;;;2.78;2.20;;;20.90;49.40;;;;;;6176637;22;20079;-56
2023/05/21 11:11:01;;;;;;;5.65;2.40;;;20.90;49.50;;;;;;6177818;22;20009;-57
2023/05/21 11:13:30;;;;;;;4.03;2.58;;;20.80;48.80;;;;;;6178597;22;20329;-56
2023/05/21 11:16:00;;;;;;;3.70;2.70;;;20.90;48.40;;;;;;6177099;22;20016;-57
2023/05/21 11:18:34;;;;;;;2.55;2.33;;;20.80;48.30;;;;;;6176244;22;20016;-56
2023/05/21 11:21:11;;;;;;;3.17;2.45;;;20.90;48.20;;;;;;6176394;22;19997;-56
2023/05/21 11:23:52;;;;;;;3.78;2.50;;;20.90;48.00;;;;;;6177976;22;20017;-56
2023/05/21 11:26:18;;;;;;;3.45;2.40;;;20.90;48.50;;;;;;6176998;22;20058;-56
2023/05/21 11:28:44;;;;;;;3.10;2.60;;;20.90;47.70;;;;;;6177258;22;20050;-57
2023/05/21 11:31:26;;;;;;;4.63;3.10;;;20.90;47.70;;;;;;6177993;22;19997;-59
2023/05/21 11:34:10;;;;;;;3.80;2.70;;;20.90;47.70;;;;;;6177175;22;20013;-56
2023/05/21 11:36:40;;;;;;;4.43;2.90;;;20.90;48.10;;;;;;6177787;22;20002;-57
2023/05/21 11:39:10;;;;;;;4.32;2.50;;;21.00;48.00;;;;;;6177552;22;20031;-57
2023/05/21 11:41:58;;;;;;;5.00;2.83;;;20.90;48.20;;;;;;6176191;22;20001;-56
2023/05/21 11:44:54;;;;;;;5.30;2.50;;;21.00;48.40;;;;;;6177247;22;20005;-57
2023/05/21 11:47:20;;;;;;;6.13;2.70;;;20.90;48.60;;;;;;6183443;22;20491;-56
2023/05/21 11:49:46;;;;;;;5.75;2.60;;;20.90;48.90;;;;;;6178124;22;20005;-56
2023/05/21 11:52:13;;;;;;;2.92;2.42;;;20.90;48.80;;;;;;6176523;23;20009;-57
2023/05/21 11:54:52;;;;;;;3.38;2.50;;;20.90;49.10;;;;;;6175020;22;20032;-57
2023/05/21 11:57:18;;;;;;;3.78;2.65;;;21.00;48.60;;;;;;6177465;22;20657;-56
2023/05/21 11:59:45;;;;;;;4.75;2.50;;;21.00;48.40;;;;;;6176439;22;20001;-55
2023/05/21 12:02:18;;;;;;;5.10;2.63;;;21.00;48.10;;;;;;6177807;23;20005;-57
2023/05/21 12:04:45;;;;;;;4.13;2.38;;;20.90;47.60;;;;;;6178193;22;20009;-55
2023/05/21 12:07:12;;;;;;;4.63;2.20;;;20.90;47.70;;;;;;6177402;22;20008;-56
2023/05/21 12:09:43;;;;;;;3.97;2.40;;;20.90;47.60;;;;;;6177938;22;20093;-55
2023/05/21 12:12:10;;;;;;;2.42;2.22;;;20.90;47.70;;;;;;6177814;22;20012;-57
2023/05/21 12:14:36;;;;;;;2.30;2.10;;;21.00;47.50;;;;;;6177840;22;20345;-56
2023/05/21 12:17:03;;;;;;;3.40;2.38;;;20.90;47.70;;;;;;6178237;22;20078;-57
2023/05/21 12:19:39;;;;;;;2.65;2.20;;;20.90;48.00;;;;;;6177748;22;20328;-56
2023/05/21 12:22:06;;;;;;;6.15;2.65;;;21.00;48.00;;;;;;6177573;23;20013;-57
2023/05/21 12:24:34;;;;;;;3.53;2.08;;;20.90;48.00;;;;;;6178099;22;20062;-56
2023/05/21 12:27:01;;;;;;;5.57;2.50;;;21.00;48.00;;;;;;6177124;22;20009;-57
2023/05/21 12:29:28;;;;;;;6.05;2.35;;;21.00;47.90;;;;;;6177426;22;20005;-57
2023/05/21 12:31:59;;;;;;;5.63;2.50;;;21.00;46.80;;;;;;6175698;22;20009;-56
2023/05/21 12:34:47;;;;;;;3.08;2.58;;;21.00;46.50;;;;;;6178387;22;20005;-56
2023/05/21 12:37:22;;;;;;;4.45;2.65;;;21.00;46.40;;;;;;6176797;22;20005;-56
2023/05/21 12:39:50;;;;;;;5.30;2.80;;;21.00;46.10;;;;;;6177796;22;20004;-58
2023/05/21 12:42:16;;;;;;;4.10;2.40;;;21.00;45.70;;;;;;6177775;22;20089;-57
2023/05/21 12:44:46;;;;;;;3.65;2.50;;;20.90;45.40;;;;;;6177128;22;20538;-56
2023/05/21 12:47:12;;;;;;;4.60;2.43;;;21.00;45.40;;;;;;6176702;22;20013;-56
2023/05/21 12:49:44;;;;;;;2.75;2.05;;;21.00;45.70;;;;;;6177345;22;20016;-57
2023/05/21 12:52:16;;;;;;;3.85;2.65;;;21.00;45.70;;;;;;6177043;22;20005;-56